Flight Track Log - Related Links

Times and Time Zones

All times are in EDT time to prevent confusion due to time zone crossing. See the FLG3862 flight status page for this flight to view local times or setup timezone preferences in your user account.

Time Position Orientation Groundspeed Altitude Reporting Facility
EDT Latitude Longitude Course Direction KTS MPH feet Rate Location/Type
Mon 12:44:00 PM 44.4007 -73.5416 253° West  Level FlightAware Approximate
Mon 12:44:03 PM 44.3833 -73.2622 256° West 277 319 7,600  Level Boston Center
Mon 12:45:00 PM 44.3731 -73.6703 253° West  Level FlightAware Approximate
Mon 12:45:03 PM 44.3681 -73.3694 259° West 277 319 9,900  Level Boston Center
Mon 12:46:00 PM 44.3522 -73.8014 259° West  Level FlightAware Approximate
Mon 12:46:03 PM 44.3503 -73.4881 258° West 300 345 10,800  Level Boston Center
Mon 12:47:00 PM 44.3334 -73.9331 259° West  Level FlightAware Approximate
Mon 12:47:03 PM 44.3281 -73.6414 259° West 355 409 12,600  Level Boston Center
Mon 12:48:00 PM 44.3095 -74.0631 256° West  Level FlightAware Approximate
Mon 12:48:03 PM 44.3078 -73.7803 259° West 365 420 14,500  Level Boston Center
Mon 12:49:03 PM 44.2872 -73.9219 259° West 372 428 16,500 1,650 Climbing Boston Center
Mon 12:50:03 PM 44.2686 -74.0578 259° West 372 428 17,800 1,650 Climbing Boston Center
Mon 12:51:03 PM 44.2481 -74.1933 258° West 366 421 19,800 1,545 Climbing Boston Center
Mon 12:52:15 PM 44.2269 -74.3289 258° West 366 421 21,200 1,182 Climbing Boston Center
Mon 12:53:15 PM 44.2033 -74.4992 259° West 371 427 22,400 1,100 Climbing Boston Center
Mon 12:54:15 PM 44.1797 -74.6403 257° West 371 427 23,400 1,000 Climbing Boston Center
Mon 12:55:15 PM 44.1581 -74.7900 259° West 382 440 24,400 1,000 Climbing Boston Center
Mon 12:56:15 PM 44.1342 -74.9336 257° West 387 445 25,400 1,000 Climbing Boston Center
Mon 12:57:15 PM 44.1122 -75.0803 258° West 392 451 26,400 950 Climbing Boston Center
Mon 12:58:15 PM 44.0922 -75.2239 259° West 392 451 27,300 800 Climbing Boston Center
Mon 12:59:15 PM 44.0675 -75.3731 257° West 392 451 28,000 350 Climbing Boston Center
Mon 01:00:15 PM 44.0431 -75.5192 257° West 392 451 28,000  Level Boston Center
Mon 01:01:15 PM 44.0200 -75.6739 258° West 397 457 28,000  Level Boston Center
Mon 01:02:15 PM 43.9944 -75.8369 258° West 416 479 28,000  Level Boston Center
Mon 01:03:15 PM 43.9689 -75.9944 257° West 421 484 28,000  Level Boston Center
Mon 01:04:15 PM 43.9533 -76.1550 262° West 426 490 28,000  Level Boston Center
Mon 01:05:15 PM 43.9500 -76.3192 268° West 426 490 28,000  Level Boston Center
Mon 01:06:15 PM 43.9464 -76.4833 268° West 420 483 28,000  Level Boston Center
Mon 01:07:15 PM 43.9425 -76.6447 268° West 420 483 28,000  Level Boston Center
Mon 01:07:48 PM 43.9333 -76.7000 257° West 420 483 28,000  Level Toronto Center
Mon 01:08:48 PM 43.9167 -76.8833 263° West 420 483 28,000  Level Toronto Center
Mon 01:09:48 PM 43.9167 -77.0167 270° West 420 483 28,000  Level Toronto Center
Mon 01:10:48 PM 43.9000 -77.1833 262° West 420 483 28,000  Level Toronto Center
Mon 01:11:48 PM 43.9000 -77.3667 270° West 420 483 28,000  Level Toronto Center
Mon 01:12:48 PM 43.9000 -77.5000 270° West 420 483 28,000  Level Toronto Center
Mon 01:13:48 PM 43.9000 -77.6667 270° West 420 483 28,000  Level Toronto Center
Mon 01:14:48 PM 43.8833 -77.8333 262° West 420 483 28,000  Level Toronto Center
Mon 01:15:48 PM 43.8833 -77.9833 270° West 420 483 28,000  Level Toronto Center
Mon 01:16:48 PM 43.8667 -78.1500 262° West 420 483 28,000  Level Toronto Center
Mon 01:17:48 PM 43.8667 -78.3167 270° West 420 483 28,000  Level Toronto Center
Mon 01:18:48 PM 43.8500 -78.4833 262° West 420 483 28,000  Level Toronto Center
Mon 01:19:48 PM 43.8667 -78.6333 279° West 420 483 28,000  Level Toronto Center
Mon 01:20:48 PM 43.8500 -78.8000 262° West 420 483 28,000  Level Toronto Center
Mon 01:21:48 PM 43.7833 -78.9333 235° Southwest 420 483 28,000  Level Toronto Center
Mon 01:22:48 PM 43.7167 -79.0500 232° Southwest 420 483 28,000  Level Toronto Center
Mon 01:23:48 PM 43.6500 -79.2000 238° Southwest 420 483 28,000  Level Toronto Center
Mon 01:24:48 PM 43.5833 -79.3167 232° Southwest 420 483 28,000  Level Toronto Center
Mon 01:25:48 PM 43.5000 -79.4500 229° Southwest 420 483 28,000  Level Toronto Center
Mon 01:26:48 PM 43.4333 -79.5833 235° Southwest 420 483 28,000  Level Toronto Center
Mon 01:27:48 PM 43.3667 -79.7000 232° Southwest 420 483 28,000 -750 Level Toronto Center
Mon 01:28:48 PM 43.3000 -79.8167 232° Southwest 430 495 26,500 -1,500 Descending Toronto Center
Mon 01:29:48 PM 43.2167 -79.9500 229° Southwest 430 495 25,000 -1,250 Descending Toronto Center
Mon 01:30:48 PM 43.1500 -80.0833 236° Southwest 430 495 24,000 -850 Descending Toronto Center
Mon 01:31:48 PM 43.0667 -80.2333 233° Southwest 420 483 23,300 -500 Descending Toronto Center
Mon 01:32:48 PM 43.0000 -80.3333 228° Southwest 430 495 23,000 -150 Descending Toronto Center
Mon 01:33:48 PM 42.9333 -80.4833 239° Southwest 430 495 23,000  Level Toronto Center
Mon 01:34:48 PM 42.8500 -80.6167 230° Southwest 430 495 23,000  Level Toronto Center
Mon 01:35:37 PM 42.8081 -80.7106 239° Southwest 434 499 23,000  Level Cleveland Center
Mon 01:36:37 PM 42.7414 -80.8461 236° Southwest 440 506 23,000  Level Cleveland Center
Mon 01:37:37 PM 42.7178 -81.0072 259° West 426 490 23,000  Level Cleveland Center
Mon 01:38:37 PM 42.6964 -81.1650 260° West 438 504 23,000  Level Cleveland Center
Mon 01:39:37 PM 42.6744 -81.3258 260° West 438 504 23,000  Level Cleveland Center
Mon 01:40:37 PM 42.6547 -81.4894 261° West 443 510 23,000 -150 Level Cleveland Center
Mon 01:41:37 PM 42.6325 -81.6500 259° West 443 510 22,700 -1,150 Descending Cleveland Center
Mon 01:42:37 PM 42.6078 -81.8272 259° West 443 510 20,700 -1,950 Descending Cleveland Center
Mon 01:43:37 PM 42.5872 -81.9819 260° West 433 498 18,800 -1,700 Descending Cleveland Center
Mon 01:44:37 PM 42.5667 -82.1281 259° West 419 482 17,300 -1,700 Descending Cleveland Center
Mon 01:45:37 PM 42.5478 -82.2686 260° West 401 461 15,400 -2,022 Descending Cleveland Center
Mon 01:46:09 PM 42.5361 -82.3528 259° West 385 443 14,200 -1,900 Descending Cleveland Center
Mon 01:46:37 PM 42.5269 -82.4117 258° West 391 450 13,500 -1,500 Descending Cleveland Center
Mon 01:47:37 PM 42.5058 -82.5461 258° West 386 444 12,000 -1,200 Descending Cleveland Center
Mon 01:47:52 PM 42.4972 -82.5769 249° West 308 354 12,000 -600 Level Cleveland Center
Mon 01:48:37 PM 42.4731 -82.6439 244° Southwest 339 390 11,400 -1,200 Descending Cleveland Center
Mon 01:49:37 PM 42.4400 -82.7411 245° Southwest 301 346 9,900 -1,291 Descending Cleveland Center
Mon 01:51:15 PM 42.4289 -82.9158 265° West 287 330 8,000 -1,220 Descending FAA TRACON SMA TRACON (SMA)
Mon 01:51:35 PM 42.4264 -82.9561 265° West 282 325 7,500 -1,500 Descending FAA TRACON SMA TRACON (SMA)
Mon 01:51:51 PM 42.4247 -82.9853 266° West 277 319 7,100 -390 Descending Cleveland Center
Mon 01:52:52 PM 42.4167 -83.0722 263° West 207 238 7,000 -396 Descending Cleveland Center
Mon 01:53:37 PM 42.4133 -83.1256 265° West 238 274 6,400 -857 Descending Cleveland Center
Mon 01:53:55 PM 42.4125 -83.1425 266° West 188 216 6,100 -947 Descending FAA TRACON SMA TRACON (SMA)
Mon 01:54:15 PM 42.4042 -83.1656 244° Southwest 182 209 5,800 -1,050 Descending FAA TRACON SMA TRACON (SMA)
Mon 01:54:35 PM 42.3975 -83.1836 243° Southwest 184 212 5,400 -1,350 Descending FAA TRACON SMA TRACON (SMA)
Mon 01:54:55 PM 42.3881 -83.2031 237° Southwest 185 213 4,900 -1,650 Descending FAA TRACON SMA TRACON (SMA)
Mon 01:55:15 PM 42.3739 -83.2203 222° Southwest 180 207 4,300 -1,800 Descending FAA TRACON SMA TRACON (SMA)

Login

Don't have an account? Register now (free) for customized features, flight alerts, and more!